Hlavní strana
METAR-TAF:

METAR-TAF

Letiště :

Tsushima, Japonsko

zeměpisná šířka: 34-17N, zeměpisná délka: 129-20E, výška: 63 m

Aktuální stav počasí

Zpráva byla vytvořena před 37 minutami, v 01:00 UTC
Severní vítr 5 kt, proměnlivý mezi západním a východoseverovýchodním
Teplota 11°C
Vlhkost vzduchu 32%
Tlak 1031 hPa
Viditelnost 10 km a více
Skoro jasno ve výšce 3500 ft

METAR: RJDT 200100Z 35005KT 280V060 9999 FEW035 11/M05 Q1031

Čas: 10:37 (01:37 UTC)


TAF: chybějící

Stav a předpovědi počasí z více než 4 000 letišť (zprávy METAR a TAF).

Červené a žluté tečky na mapě představují dostupné meteorologické stanice.

Když kurzor umístíte na tečku, zobrazí se název stanice.

Pak kliknutím zobrazíte stav a předpověď počasí.

Chcete-li změnit mapu, kliknutím na zelené tlačítko se znaménkem +mapu přiblížíte, kliknutím na zelené tlačítko se znaménkem – mapu oddálíte a kliknutím na zelené šipky přejdete na sousední mapy.


METAR-TAF: